sensor_id;sensor_type;location;lat;lon;timestamp;temperature;humidity
4461;DHT22;2243;48.812;9.232;2023-09-19T00:00:25;19.10;99.90
4461;DHT22;2243;48.812;9.232;2023-09-19T00:02:58;19.00;99.90
4461;DHT22;2243;48.812;9.232;2023-09-19T00:05:36;19.00;99.90
4461;DHT22;2243;48.812;9.232;2023-09-19T00:08:15;19.00;99.90
4461;DHT22;2243;48.812;9.232;2023-09-19T00:10:47;19.00;99.90
4461;DHT22;2243;48.812;9.232;2023-09-19T00:13:19;19.00;99.90
4461;DHT22;2243;48.812;9.232;2023-09-19T00:15:50;19.00;99.90
4461;DHT22;2243;48.812;9.232;2023-09-19T00:18:21;19.00;99.90
4461;DHT22;2243;48.812;9.232;2023-09-19T00:20:57;19.00;99.90
4461;DHT22;2243;48.812;9.232;2023-09-19T00:23:28;19.00;99.90
4461;DHT22;2243;48.812;9.232;2023-09-19T00:26:00;19.00;99.90
4461;DHT22;2243;48.812;9.232;2023-09-19T00:28:31;19.00;99.90
4461;DHT22;2243;48.812;9.232;2023-09-19T00:31:03;19.00;99.90
4461;DHT22;2243;48.812;9.232;2023-09-19T00:33:35;18.90;99.90
4461;DHT22;2243;48.812;9.232;2023-09-19T00:36:07;18.90;99.90
4461;DHT22;2243;48.812;9.232;2023-09-19T00:38:38;18.90;99.90
4461;DHT22;2243;48.812;9.232;2023-09-19T00:41:09;18.90;99.90
4461;DHT22;2243;48.812;9.232;2023-09-19T00:43:40;18.90;99.90
4461;DHT22;2243;48.812;9.232;2023-09-19T00:46:11;19.00;99.90
4461;DHT22;2243;48.812;9.232;2023-09-19T00:48:42;18.80;99.90
4461;DHT22;2243;48.812;9.232;2023-09-19T00:51:14;19.00;99.90
4461;DHT22;2243;48.812;9.232;2023-09-19T00:53:50;18.80;99.90
4461;DHT22;2243;48.812;9.232;2023-09-19T00:56:21;18.90;99.90
4461;DHT22;2243;48.812;9.232;2023-09-19T00:58:52;19.00;99.90
4461;DHT22;2243;48.812;9.232;2023-09-19T01:01:23;19.00;99.90
4461;DHT22;2243;48.812;9.232;2023-09-19T01:03:54;18.90;99.90
4461;DHT22;2243;48.812;9.232;2023-09-19T01:06:25;19.00;99.90
4461;DHT22;2243;48.812;9.232;2023-09-19T01:08:57;18.90;99.90
4461;DHT22;2243;48.812;9.232;2023-09-19T01:11:36;19.00;99.90
4461;DHT22;2243;48.812;9.232;2023-09-19T01:14:34;18.90;99.90
4461;DHT22;2243;48.812;9.232;2023-09-19T01:17:25;18.80;99.90
4461;DHT22;2243;48.812;9.232;2023-09-19T01:23:04;18.90;99.90
4461;DHT22;2243;48.812;9.232;2023-09-19T01:25:50;18.90;99.90
4461;DHT22;2243;48.812;9.232;2023-09-19T01:31:12;18.80;99.90
4461;DHT22;2243;48.812;9.232;2023-09-19T01:33:57;18.70;99.90
4461;DHT22;2243;48.812;9.232;2023-09-19T01:36:34;18.70;99.90
4461;DHT22;2243;48.812;9.232;2023-09-19T01:39:11;18.70;99.90
4461;DHT22;2243;48.812;9.232;2023-09-19T01:47:37;18.70;99.90
4461;DHT22;2243;48.812;9.232;2023-09-19T01:53:36;18.70;99.90
4461;DHT22;2243;48.812;9.232;2023-09-19T01:59:59;18.80;99.90
4461;DHT22;2243;48.812;9.232;2023-09-19T02:02:46;18.80;99.90
4461;DHT22;2243;48.812;9.232;2023-09-19T02:05:24;18.70;99.90
4461;DHT22;2243;48.812;9.232;2023-09-19T02:07:56;18.70;99.90
4461;DHT22;2243;48.812;9.232;2023-09-19T02:10:27;18.80;99.90
4461;DHT22;2243;48.812;9.232;2023-09-19T02:12:58;18.80;99.90
4461;DHT22;2243;48.812;9.232;2023-09-19T02:15:29;18.70;99.90
4461;DHT22;2243;48.812;9.232;2023-09-19T02:18:03;18.80;99.90
4461;DHT22;2243;48.812;9.232;2023-09-19T02:20:34;18.80;99.90
4461;DHT22;2243;48.812;9.232;2023-09-19T02:23:06;18.70;99.90
4461;DHT22;2243;48.812;9.232;2023-09-19T02:25:39;18.60;99.90
4461;DHT22;2243;48.812;9.232;2023-09-19T02:28:11;18.60;99.90
4461;DHT22;2243;48.812;9.232;2023-09-19T02:30:42;18.70;99.90
4461;DHT22;2243;48.812;9.232;2023-09-19T02:33:13;18.70;99.90
4461;DHT22;2243;48.812;9.232;2023-09-19T02:35:44;18.60;99.90
4461;DHT22;2243;48.812;9.232;2023-09-19T02:38:15;18.60;99.90
4461;DHT22;2243;48.812;9.232;2023-09-19T02:40:52;18.70;99.90
4461;DHT22;2243;48.812;9.232;2023-09-19T02:43:23;18.70;99.90
4461;DHT22;2243;48.812;9.232;2023-09-19T02:45:55;18.60;99.90
4461;DHT22;2243;48.812;9.232;2023-09-19T02:48:27;18.60;99.90
4461;DHT22;2243;48.812;9.232;2023-09-19T02:51:00;18.60;99.90
4461;DHT22;2243;48.812;9.232;2023-09-19T02:53:31;18.60;99.90
4461;DHT22;2243;48.812;9.232;2023-09-19T02:56:02;18.70;99.90
4461;DHT22;2243;48.812;9.232;2023-09-19T02:58:34;18.60;99.90
4461;DHT22;2243;48.812;9.232;2023-09-19T03:01:12;18.50;99.90
4461;DHT22;2243;48.812;9.232;2023-09-19T03:03:43;18.60;99.90
4461;DHT22;2243;48.812;9.232;2023-09-19T03:06:15;18.50;99.90
4461;DHT22;2243;48.812;9.232;2023-09-19T03:08:50;18.50;99.90
4461;DHT22;2243;48.812;9.232;2023-09-19T03:11:22;18.60;99.90
4461;DHT22;2243;48.812;9.232;2023-09-19T03:13:54;18.60;99.90
4461;DHT22;2243;48.812;9.232;2023-09-19T03:16:25;18.50;99.90
4461;DHT22;2243;48.812;9.232;2023-09-19T03:18:56;18.50;99.90
4461;DHT22;2243;48.812;9.232;2023-09-19T03:21:28;18.60;99.90
4461;DHT22;2243;48.812;9.232;2023-09-19T03:24:01;18.60;99.90
4461;DHT22;2243;48.812;9.232;2023-09-19T03:26:32;18.60;99.90
4461;DHT22;2243;48.812;9.232;2023-09-19T03:29:04;18.60;99.90
4461;DHT22;2243;48.812;9.232;2023-09-19T03:31:37;18.60;99.90
4461;DHT22;2243;48.812;9.232;2023-09-19T03:34:08;18.60;99.90
4461;DHT22;2243;48.812;9.232;2023-09-19T03:36:39;18.60;99.90
4461;DHT22;2243;48.812;9.232;2023-09-19T03:39:11;18.60;99.90
4461;DHT22;2243;48.812;9.232;2023-09-19T03:41:42;18.60;99.90
4461;DHT22;2243;48.812;9.232;2023-09-19T03:44:13;18.60;99.90
4461;DHT22;2243;48.812;9.232;2023-09-19T03:46:45;18.50;99.90
4461;DHT22;2243;48.812;9.232;2023-09-19T03:49:17;18.50;99.90
4461;DHT22;2243;48.812;9.232;2023-09-19T03:51:48;18.50;99.90
4461;DHT22;2243;48.812;9.232;2023-09-19T03:54:19;18.50;99.90
4461;DHT22;2243;48.812;9.232;2023-09-19T03:56:50;18.50;99.90
4461;DHT22;2243;48.812;9.232;2023-09-19T03:59:21;18.60;99.90
4461;DHT22;2243;48.812;9.232;2023-09-19T04:01:52;18.60;99.90
4461;DHT22;2243;48.812;9.232;2023-09-19T04:04:26;18.50;99.90
4461;DHT22;2243;48.812;9.232;2023-09-19T04:07:00;18.60;99.90
4461;DHT22;2243;48.812;9.232;2023-09-19T04:09:30;18.70;99.90
4461;DHT22;2243;48.812;9.232;2023-09-19T04:12:02;18.60;99.90
4461;DHT22;2243;48.812;9.232;2023-09-19T04:14:33;18.70;99.90
4461;DHT22;2243;48.812;9.232;2023-09-19T04:17:04;18.60;99.90
4461;DHT22;2243;48.812;9.232;2023-09-19T04:19:38;18.50;99.90
4461;DHT22;2243;48.812;9.232;2023-09-19T04:22:11;18.30;99.90
4461;DHT22;2243;48.812;9.232;2023-09-19T04:24:43;18.30;99.90
4461;DHT22;2243;48.812;9.232;2023-09-19T04:27:14;18.30;99.90
4461;DHT22;2243;48.812;9.232;2023-09-19T04:29:45;18.20;99.90
4461;DHT22;2243;48.812;9.232;2023-09-19T04:32:16;18.10;99.90
4461;DHT22;2243;48.812;9.232;2023-09-19T04:34:48;18.10;99.90
4461;DHT22;2243;48.812;9.232;2023-09-19T04:37:21;18.10;99.90
4461;DHT22;2243;48.812;9.232;2023-09-19T04:39:52;18.10;99.90
4461;DHT22;2243;48.812;9.232;2023-09-19T04:42:24;18.10;99.90
4461;DHT22;2243;48.812;9.232;2023-09-19T04:44:56;18.20;99.90
4461;DHT22;2243;48.812;9.232;2023-09-19T04:47:27;18.60;99.90
4461;DHT22;2243;48.812;9.232;2023-09-19T04:49:58;18.80;99.90
4461;DHT22;2243;48.812;9.232;2023-09-19T04:52:30;19.00;99.90
4461;DHT22;2243;48.812;9.232;2023-09-19T04:55:02;19.10;99.90
4461;DHT22;2243;48.812;9.232;2023-09-19T04:57:33;19.10;99.90
4461;DHT22;2243;48.812;9.232;2023-09-19T05:00:05;19.10;99.90
4461;DHT22;2243;48.812;9.232;2023-09-19T05:02:43;19.00;99.90
4461;DHT22;2243;48.812;9.232;2023-09-19T05:05:14;18.80;99.90
4461;DHT22;2243;48.812;9.232;2023-09-19T05:07:48;18.60;99.90
4461;DHT22;2243;48.812;9.232;2023-09-19T05:10:19;18.50;99.90
4461;DHT22;2243;48.812;9.232;2023-09-19T05:12:53;18.30;99.90
4461;DHT22;2243;48.812;9.232;2023-09-19T05:15:24;18.10;99.90
4461;DHT22;2243;48.812;9.232;2023-09-19T05:17:55;17.90;99.90
4461;DHT22;2243;48.812;9.232;2023-09-19T05:20:28;17.70;99.90
4461;DHT22;2243;48.812;9.232;2023-09-19T05:23:05;17.50;99.90
4461;DHT22;2243;48.812;9.232;2023-09-19T05:25:40;17.50;99.90
4461;DHT22;2243;48.812;9.232;2023-09-19T05:28:11;17.40;99.90
4461;DHT22;2243;48.812;9.232;2023-09-19T05:30:46;17.30;99.90
4461;DHT22;2243;48.812;9.232;2023-09-19T05:33:21;17.40;99.90
4461;DHT22;2243;48.812;9.232;2023-09-19T05:35:52;17.40;99.90
4461;DHT22;2243;48.812;9.232;2023-09-19T05:38:24;17.40;99.90
4461;DHT22;2243;48.812;9.232;2023-09-19T05:40:58;17.50;99.90
4461;DHT22;2243;48.812;9.232;2023-09-19T05:43:29;17.40;99.90
4461;DHT22;2243;48.812;9.232;2023-09-19T05:46:00;17.50;99.90
4461;DHT22;2243;48.812;9.232;2023-09-19T05:48:31;17.50;99.90
4461;DHT22;2243;48.812;9.232;2023-09-19T05:51:03;17.30;99.90
4461;DHT22;2243;48.812;9.232;2023-09-19T05:53:34;17.20;99.90
4461;DHT22;2243;48.812;9.232;2023-09-19T05:56:05;17.00;99.90
4461;DHT22;2243;48.812;9.232;2023-09-19T05:58:36;16.80;99.90
4461;DHT22;2243;48.812;9.232;2023-09-19T06:01:07;16.60;99.90
4461;DHT22;2243;48.812;9.232;2023-09-19T06:03:40;16.60;99.90
4461;DHT22;2243;48.812;9.232;2023-09-19T06:06:11;16.40;99.90
4461;DHT22;2243;48.812;9.232;2023-09-19T06:08:42;16.30;99.90
4461;DHT22;2243;48.812;9.232;2023-09-19T06:11:16;16.20;99.90
4461;DHT22;2243;48.812;9.232;2023-09-19T06:13:47;16.10;99.90
4461;DHT22;2243;48.812;9.232;2023-09-19T06:16:18;15.70;99.90
4461;DHT22;2243;48.812;9.232;2023-09-19T06:18:50;15.70;99.90
4461;DHT22;2243;48.812;9.232;2023-09-19T06:21:22;15.60;99.90
4461;DHT22;2243;48.812;9.232;2023-09-19T06:23:54;15.50;99.90
4461;DHT22;2243;48.812;9.232;2023-09-19T06:26:25;15.50;99.90
4461;DHT22;2243;48.812;9.232;2023-09-19T06:28:58;15.50;99.90
4461;DHT22;2243;48.812;9.232;2023-09-19T06:31:30;15.50;99.90
4461;DHT22;2243;48.812;9.232;2023-09-19T06:34:02;15.50;99.90
4461;DHT22;2243;48.812;9.232;2023-09-19T06:36:33;15.50;99.90
4461;DHT22;2243;48.812;9.232;2023-09-19T06:39:04;15.60;99.90
4461;DHT22;2243;48.812;9.232;2023-09-19T06:41:37;15.50;99.90
4461;DHT22;2243;48.812;9.232;2023-09-19T06:44:10;15.60;99.90
4461;DHT22;2243;48.812;9.232;2023-09-19T06:46:41;15.60;99.90
4461;DHT22;2243;48.812;9.232;2023-09-19T06:49:15;15.70;99.90
4461;DHT22;2243;48.812;9.232;2023-09-19T06:51:46;15.80;99.90
4461;DHT22;2243;48.812;9.232;2023-09-19T06:54:20;16.00;99.90
4461;DHT22;2243;48.812;9.232;2023-09-19T06:56:55;16.10;99.90
4461;DHT22;2243;48.812;9.232;2023-09-19T06:59:26;16.20;99.90
4461;DHT22;2243;48.812;9.232;2023-09-19T07:01:58;16.20;99.90
4461;DHT22;2243;48.812;9.232;2023-09-19T07:04:30;16.20;99.90
4461;DHT22;2243;48.812;9.232;2023-09-19T07:07:01;16.40;99.90
4461;DHT22;2243;48.812;9.232;2023-09-19T07:09:33;16.60;99.90
4461;DHT22;2243;48.812;9.232;2023-09-19T07:12:05;16.70;99.90
4461;DHT22;2243;48.812;9.232;2023-09-19T07:14:37;16.70;99.90
4461;DHT22;2243;48.812;9.232;2023-09-19T07:17:08;16.80;99.90
4461;DHT22;2243;48.812;9.232;2023-09-19T07:19:40;16.90;99.90
4461;DHT22;2243;48.812;9.232;2023-09-19T07:22:11;16.80;99.90
4461;DHT22;2243;48.812;9.232;2023-09-19T07:24:44;16.90;99.90
4461;DHT22;2243;48.812;9.232;2023-09-19T07:27:15;16.90;99.90
4461;DHT22;2243;48.812;9.232;2023-09-19T07:29:47;16.90;99.90
4461;DHT22;2243;48.812;9.232;2023-09-19T07:32:22;17.00;99.90
4461;DHT22;2243;48.812;9.232;2023-09-19T07:34:54;16.90;99.90
4461;DHT22;2243;48.812;9.232;2023-09-19T07:37:26;16.90;99.90
4461;DHT22;2243;48.812;9.232;2023-09-19T07:39:58;17.10;99.90
4461;DHT22;2243;48.812;9.232;2023-09-19T07:42:29;17.10;99.90
4461;DHT22;2243;48.812;9.232;2023-09-19T07:45:01;17.20;99.90
4461;DHT22;2243;48.812;9.232;2023-09-19T07:47:34;17.20;99.90
4461;DHT22;2243;48.812;9.232;2023-09-19T07:50:07;17.30;99.90
4461;DHT22;2243;48.812;9.232;2023-09-19T07:52:39;17.30;99.90
4461;DHT22;2243;48.812;9.232;2023-09-19T07:55:11;17.30;99.90
4461;DHT22;2243;48.812;9.232;2023-09-19T07:57:47;17.40;99.90
4461;DHT22;2243;48.812;9.232;2023-09-19T08:00:18;17.40;99.90
4461;DHT22;2243;48.812;9.232;2023-09-19T08:02:50;17.40;99.90
4461;DHT22;2243;48.812;9.232;2023-09-19T08:05:30;17.50;99.90
4461;DHT22;2243;48.812;9.232;2023-09-19T08:08:04;17.50;99.90
4461;DHT22;2243;48.812;9.232;2023-09-19T08:10:37;17.60;99.90
4461;DHT22;2243;48.812;9.232;2023-09-19T08:13:10;17.60;99.90
4461;DHT22;2243;48.812;9.232;2023-09-19T08:15:46;17.70;99.90
4461;DHT22;2243;48.812;9.232;2023-09-19T08:18:18;17.70;99.90
4461;DHT22;2243;48.812;9.232;2023-09-19T08:20:51;17.80;99.90
4461;DHT22;2243;48.812;9.232;2023-09-19T08:23:23;17.90;99.90
4461;DHT22;2243;48.812;9.232;2023-09-19T08:25:57;17.90;99.90
4461;DHT22;2243;48.812;9.232;2023-09-19T08:28:29;17.90;99.90
4461;DHT22;2243;48.812;9.232;2023-09-19T08:31:04;18.00;99.90
4461;DHT22;2243;48.812;9.232;2023-09-19T08:33:36;18.00;99.90
4461;DHT22;2243;48.812;9.232;2023-09-19T08:36:09;18.10;99.90
4461;DHT22;2243;48.812;9.232;2023-09-19T08:38:40;18.10;99.90
4461;DHT22;2243;48.812;9.232;2023-09-19T08:41:11;18.20;99.90
4461;DHT22;2243;48.812;9.232;2023-09-19T08:43:43;18.30;99.90
4461;DHT22;2243;48.812;9.232;2023-09-19T08:46:15;18.40;99.90
4461;DHT22;2243;48.812;9.232;2023-09-19T08:49:05;18.40;99.90
4461;DHT22;2243;48.812;9.232;2023-09-19T08:52:14;18.40;99.90
4461;DHT22;2243;48.812;9.232;2023-09-19T08:54:52;18.40;99.90
4461;DHT22;2243;48.812;9.232;2023-09-19T08:57:36;18.50;99.90
4461;DHT22;2243;48.812;9.232;2023-09-19T09:00:13;18.60;99.90
4461;DHT22;2243;48.812;9.232;2023-09-19T09:02:46;18.70;99.90
4461;DHT22;2243;48.812;9.232;2023-09-19T09:05:18;18.60;99.90
4461;DHT22;2243;48.812;9.232;2023-09-19T09:07:54;18.50;99.90
4461;DHT22;2243;48.812;9.232;2023-09-19T09:10:27;18.60;99.90
4461;DHT22;2243;48.812;9.232;2023-09-19T09:12:58;18.70;99.90
4461;DHT22;2243;48.812;9.232;2023-09-19T09:15:30;18.80;99.90
4461;DHT22;2243;48.812;9.232;2023-09-19T09:18:03;18.90;99.90
4461;DHT22;2243;48.812;9.232;2023-09-19T09:20:35;19.00;99.90
4461;DHT22;2243;48.812;9.232;2023-09-19T09:23:06;18.90;99.90
4461;DHT22;2243;48.812;9.232;2023-09-19T09:28:27;19.10;99.90
4461;DHT22;2243;48.812;9.232;2023-09-19T09:30:59;19.20;99.90
4461;DHT22;2243;48.812;9.232;2023-09-19T09:33:39;19.30;99.90
4461;DHT22;2243;48.812;9.232;2023-09-19T09:36:12;19.40;99.90
4461;DHT22;2243;48.812;9.232;2023-09-19T09:38:47;19.60;99.90
4461;DHT22;2243;48.812;9.232;2023-09-19T09:41:19;19.70;99.90
4461;DHT22;2243;48.812;9.232;2023-09-19T09:44:15;19.90;99.90
4461;DHT22;2243;48.812;9.232;2023-09-19T09:46:50;20.10;99.90
4461;DHT22;2243;48.812;9.232;2023-09-19T09:49:26;20.20;99.90
4461;DHT22;2243;48.812;9.232;2023-09-19T09:52:07;20.20;99.90
4461;DHT22;2243;48.812;9.232;2023-09-19T09:55:01;20.20;99.90
4461;DHT22;2243;48.812;9.232;2023-09-19T09:57:39;20.10;99.90
4461;DHT22;2243;48.812;9.232;2023-09-19T10:00:12;20.10;99.90
4461;DHT22;2243;48.812;9.232;2023-09-19T10:02:43;20.10;99.90
4461;DHT22;2243;48.812;9.232;2023-09-19T10:05:19;20.10;99.90
4461;DHT22;2243;48.812;9.232;2023-09-19T10:07:51;20.30;99.90
4461;DHT22;2243;48.812;9.232;2023-09-19T10:10:32;20.30;99.90
4461;DHT22;2243;48.812;9.232;2023-09-19T10:13:14;20.40;99.90
4461;DHT22;2243;48.812;9.232;2023-09-19T10:15:50;20.20;99.90
4461;DHT22;2243;48.812;9.232;2023-09-19T10:18:24;20.20;99.90
4461;DHT22;2243;48.812;9.232;2023-09-19T10:20:58;20.20;99.90
4461;DHT22;2243;48.812;9.232;2023-09-19T10:23:31;20.20;99.90
4461;DHT22;2243;48.812;9.232;2023-09-19T10:26:05;20.30;99.90
4461;DHT22;2243;48.812;9.232;2023-09-19T10:28:37;20.40;99.90
4461;DHT22;2243;48.812;9.232;2023-09-19T10:31:10;20.50;99.90
4461;DHT22;2243;48.812;9.232;2023-09-19T10:33:45;20.50;99.90
4461;DHT22;2243;48.812;9.232;2023-09-19T10:36:20;20.50;99.90
4461;DHT22;2243;48.812;9.232;2023-09-19T10:38:53;20.40;99.90
4461;DHT22;2243;48.812;9.232;2023-09-19T10:41:27;20.50;99.90
4461;DHT22;2243;48.812;9.232;2023-09-19T10:44:04;20.50;99.90
4461;DHT22;2243;48.812;9.232;2023-09-19T10:46:37;20.60;99.90
4461;DHT22;2243;48.812;9.232;2023-09-19T10:49:10;20.70;99.70
4461;DHT22;2243;48.812;9.232;2023-09-19T10:51:43;21.20;99.10
4461;DHT22;2243;48.812;9.232;2023-09-19T10:54:19;22.00;98.30
4461;DHT22;2243;48.812;9.232;2023-09-19T10:56:57;22.60;97.30
4461;DHT22;2243;48.812;9.232;2023-09-19T10:59:29;23.20;96.20
4461;DHT22;2243;48.812;9.232;2023-09-19T11:02:18;23.60;95.90
4461;DHT22;2243;48.812;9.232;2023-09-19T11:04:49;23.80;95.60
4461;DHT22;2243;48.812;9.232;2023-09-19T11:07:21;24.00;94.70
4461;DHT22;2243;48.812;9.232;2023-09-19T11:09:53;24.00;94.30
4461;DHT22;2243;48.812;9.232;2023-09-19T11:15:03;23.30;94.00
4461;DHT22;2243;48.812;9.232;2023-09-19T11:17:44;23.20;94.00
4461;DHT22;2243;48.812;9.232;2023-09-19T11:20:22;22.90;94.40
4461;DHT22;2243;48.812;9.232;2023-09-19T11:25:48;22.60;94.60
4461;DHT22;2243;48.812;9.232;2023-09-19T11:30:55;22.80;94.30
4461;DHT22;2243;48.812;9.232;2023-09-19T11:33:30;22.80;94.50
4461;DHT22;2243;48.812;9.232;2023-09-19T11:41:37;23.30;93.20
4461;DHT22;2243;48.812;9.232;2023-09-19T11:46:54;23.30;92.80
4461;DHT22;2243;48.812;9.232;2023-09-19T11:49:31;23.30;92.80
4461;DHT22;2243;48.812;9.232;2023-09-19T11:52:04;23.30;92.30
4461;DHT22;2243;48.812;9.232;2023-09-19T11:54:36;23.30;92.00
4461;DHT22;2243;48.812;9.232;2023-09-19T11:57:11;23.20;92.40
4461;DHT22;2243;48.812;9.232;2023-09-19T11:59:42;23.40;92.60
4461;DHT22;2243;48.812;9.232;2023-09-19T12:02:32;23.50;91.80
4461;DHT22;2243;48.812;9.232;2023-09-19T12:05:11;23.50;92.00
4461;DHT22;2243;48.812;9.232;2023-09-19T12:07:43;23.50;92.40
4461;DHT22;2243;48.812;9.232;2023-09-19T12:10:16;23.60;92.10
4461;DHT22;2243;48.812;9.232;2023-09-19T12:12:48;23.60;91.80
4461;DHT22;2243;48.812;9.232;2023-09-19T12:15:24;23.50;91.90
4461;DHT22;2243;48.812;9.232;2023-09-19T12:17:59;23.40;92.00
4461;DHT22;2243;48.812;9.232;2023-09-19T12:20:43;23.50;92.00
4461;DHT22;2243;48.812;9.232;2023-09-19T12:23:20;23.60;92.00
4461;DHT22;2243;48.812;9.232;2023-09-19T12:25:52;23.70;92.10
4461;DHT22;2243;48.812;9.232;2023-09-19T12:28:27;23.70;92.40
4461;DHT22;2243;48.812;9.232;2023-09-19T12:31:07;23.80;92.20
4461;DHT22;2243;48.812;9.232;2023-09-19T12:33:40;23.70;91.80
4461;DHT22;2243;48.812;9.232;2023-09-19T12:36:22;23.70;92.20
4461;DHT22;2243;48.812;9.232;2023-09-19T12:38:59;23.80;92.10
4461;DHT22;2243;48.812;9.232;2023-09-19T12:41:31;23.80;91.90
4461;DHT22;2243;48.812;9.232;2023-09-19T12:44:02;23.80;92.50
4461;DHT22;2243;48.812;9.232;2023-09-19T12:46:39;23.90;92.60
4461;DHT22;2243;48.812;9.232;2023-09-19T12:49:18;23.90;92.20
4461;DHT22;2243;48.812;9.232;2023-09-19T12:51:49;24.10;92.10
4461;DHT22;2243;48.812;9.232;2023-09-19T12:54:25;24.10;91.60
4461;DHT22;2243;48.812;9.232;2023-09-19T12:57:23;24.10;91.40
4461;DHT22;2243;48.812;9.232;2023-09-19T12:59:56;24.10;91.50
4461;DHT22;2243;48.812;9.232;2023-09-19T13:02:28;24.10;91.60
4461;DHT22;2243;48.812;9.232;2023-09-19T13:04:59;24.30;91.90
4461;DHT22;2243;48.812;9.232;2023-09-19T13:07:45;24.50;91.00
4461;DHT22;2243;48.812;9.232;2023-09-19T13:10:17;24.60;90.80
4461;DHT22;2243;48.812;9.232;2023-09-19T13:12:54;24.80;90.50
4461;DHT22;2243;48.812;9.232;2023-09-19T13:15:25;25.00;90.10
4461;DHT22;2243;48.812;9.232;2023-09-19T13:18:11;24.90;90.20
4461;DHT22;2243;48.812;9.232;2023-09-19T13:21:09;24.60;90.00
4461;DHT22;2243;48.812;9.232;2023-09-19T13:23:46;24.60;90.70
4461;DHT22;2243;48.812;9.232;2023-09-19T13:26:17;24.60;90.60
4461;DHT22;2243;48.812;9.232;2023-09-19T13:28:49;24.40;90.80
4461;DHT22;2243;48.812;9.232;2023-09-19T13:31:20;24.40;90.90
4461;DHT22;2243;48.812;9.232;2023-09-19T13:33:52;24.40;91.00
4461;DHT22;2243;48.812;9.232;2023-09-19T13:36:23;24.40;90.80
4461;DHT22;2243;48.812;9.232;2023-09-19T13:38:54;24.40;90.70
4461;DHT22;2243;48.812;9.232;2023-09-19T13:41:26;24.20;90.70
4461;DHT22;2243;48.812;9.232;2023-09-19T13:43:57;23.90;91.20
4461;DHT22;2243;48.812;9.232;2023-09-19T13:46:29;23.90;91.60
4461;DHT22;2243;48.812;9.232;2023-09-19T13:49:01;24.00;91.60
4461;DHT22;2243;48.812;9.232;2023-09-19T13:51:34;24.20;91.30
4461;DHT22;2243;48.812;9.232;2023-09-19T13:54:06;24.40;90.50
4461;DHT22;2243;48.812;9.232;2023-09-19T13:56:37;24.30;90.40
4461;DHT22;2243;48.812;9.232;2023-09-19T13:59:09;24.20;90.30
4461;DHT22;2243;48.812;9.232;2023-09-19T14:01:40;24.10;91.00
4461;DHT22;2243;48.812;9.232;2023-09-19T14:04:12;24.00;91.50
4461;DHT22;2243;48.812;9.232;2023-09-19T14:06:46;23.90;91.50
4461;DHT22;2243;48.812;9.232;2023-09-19T14:09:17;23.90;91.30
4461;DHT22;2243;48.812;9.232;2023-09-19T14:11:50;23.90;91.20
4461;DHT22;2243;48.812;9.232;2023-09-19T14:14:23;23.90;91.40
4461;DHT22;2243;48.812;9.232;2023-09-19T14:16:54;23.80;91.40
4461;DHT22;2243;48.812;9.232;2023-09-19T14:19:26;23.70;91.50
4461;DHT22;2243;48.812;9.232;2023-09-19T14:21:57;23.70;91.50
4461;DHT22;2243;48.812;9.232;2023-09-19T14:24:29;23.70;91.50
4461;DHT22;2243;48.812;9.232;2023-09-19T14:27:01;23.90;91.40
4461;DHT22;2243;48.812;9.232;2023-09-19T14:29:33;24.00;90.90
4461;DHT22;2243;48.812;9.232;2023-09-19T14:32:05;24.00;90.90
4461;DHT22;2243;48.812;9.232;2023-09-19T14:34:36;23.90;91.00
4461;DHT22;2243;48.812;9.232;2023-09-19T14:37:12;23.90;91.20
4461;DHT22;2243;48.812;9.232;2023-09-19T14:39:44;23.80;91.10
4461;DHT22;2243;48.812;9.232;2023-09-19T14:42:15;23.90;91.20
4461;DHT22;2243;48.812;9.232;2023-09-19T14:44:48;24.00;90.90
4461;DHT22;2243;48.812;9.232;2023-09-19T14:47:20;24.10;90.90
4461;DHT22;2243;48.812;9.232;2023-09-19T14:49:52;24.30;90.50
4461;DHT22;2243;48.812;9.232;2023-09-19T14:52:23;24.30;90.40
4461;DHT22;2243;48.812;9.232;2023-09-19T14:54:54;24.40;90.20
4461;DHT22;2243;48.812;9.232;2023-09-19T14:57:25;24.60;90.10
4461;DHT22;2243;48.812;9.232;2023-09-19T14:59:57;24.80;89.60
4461;DHT22;2243;48.812;9.232;2023-09-19T15:02:28;25.00;89.50
4461;DHT22;2243;48.812;9.232;2023-09-19T15:05:00;25.10;89.30
4461;DHT22;2243;48.812;9.232;2023-09-19T15:07:31;25.10;88.60
4461;DHT22;2243;48.812;9.232;2023-09-19T15:10:06;24.90;88.20
4461;DHT22;2243;48.812;9.232;2023-09-19T15:12:40;24.80;87.80
4461;DHT22;2243;48.812;9.232;2023-09-19T15:15:11;24.60;88.40
4461;DHT22;2243;48.812;9.232;2023-09-19T15:17:43;24.70;88.00
4461;DHT22;2243;48.812;9.232;2023-09-19T15:20:15;24.70;88.60
4461;DHT22;2243;48.812;9.232;2023-09-19T15:22:45;24.60;88.10
4461;DHT22;2243;48.812;9.232;2023-09-19T15:25:17;24.60;88.00
4461;DHT22;2243;48.812;9.232;2023-09-19T15:27:48;24.50;87.90
4461;DHT22;2243;48.812;9.232;2023-09-19T15:30:20;24.40;87.30
4461;DHT22;2243;48.812;9.232;2023-09-19T15:32:51;24.20;88.00
4461;DHT22;2243;48.812;9.232;2023-09-19T15:35:24;24.20;88.40
4461;DHT22;2243;48.812;9.232;2023-09-19T15:37:55;24.30;88.20
4461;DHT22;2243;48.812;9.232;2023-09-19T15:40:27;24.40;87.50
4461;DHT22;2243;48.812;9.232;2023-09-19T15:42:58;24.60;87.80
4461;DHT22;2243;48.812;9.232;2023-09-19T15:45:30;24.60;86.80
4461;DHT22;2243;48.812;9.232;2023-09-19T15:48:02;24.60;86.90
4461;DHT22;2243;48.812;9.232;2023-09-19T15:50:35;24.50;87.20
4461;DHT22;2243;48.812;9.232;2023-09-19T15:53:06;24.40;87.70
4461;DHT22;2243;48.812;9.232;2023-09-19T15:55:40;24.30;87.60
4461;DHT22;2243;48.812;9.232;2023-09-19T15:58:12;24.20;88.10
4461;DHT22;2243;48.812;9.232;2023-09-19T16:00:43;24.00;88.20
4461;DHT22;2243;48.812;9.232;2023-09-19T16:03:14;23.80;88.50
4461;DHT22;2243;48.812;9.232;2023-09-19T16:05:45;23.80;88.80
4461;DHT22;2243;48.812;9.232;2023-09-19T16:08:16;23.70;89.10
4461;DHT22;2243;48.812;9.232;2023-09-19T16:10:48;23.80;89.20
4461;DHT22;2243;48.812;9.232;2023-09-19T16:13:19;23.70;89.80
4461;DHT22;2243;48.812;9.232;2023-09-19T16:15:50;23.80;90.10
4461;DHT22;2243;48.812;9.232;2023-09-19T16:18:21;23.80;89.90
4461;DHT22;2243;48.812;9.232;2023-09-19T16:20:52;23.80;90.00
4461;DHT22;2243;48.812;9.232;2023-09-19T16:23:23;23.90;89.80
4461;DHT22;2243;48.812;9.232;2023-09-19T16:26:06;23.70;90.00
4461;DHT22;2243;48.812;9.232;2023-09-19T16:28:40;23.70;90.00
4461;DHT22;2243;48.812;9.232;2023-09-19T16:31:13;23.70;89.50
4461;DHT22;2243;48.812;9.232;2023-09-19T16:33:46;23.60;90.20
4461;DHT22;2243;48.812;9.232;2023-09-19T16:36:19;23.50;90.10
4461;DHT22;2243;48.812;9.232;2023-09-19T16:38:51;23.60;90.10
4461;DHT22;2243;48.812;9.232;2023-09-19T16:41:22;23.60;90.10
4461;DHT22;2243;48.812;9.232;2023-09-19T16:43:54;23.70;90.10
4461;DHT22;2243;48.812;9.232;2023-09-19T16:46:26;23.70;90.30
4461;DHT22;2243;48.812;9.232;2023-09-19T16:48:57;23.70;90.30
4461;DHT22;2243;48.812;9.232;2023-09-19T16:51:34;23.70;90.30
4461;DHT22;2243;48.812;9.232;2023-09-19T16:54:05;23.70;90.40
4461;DHT22;2243;48.812;9.232;2023-09-19T16:56:36;23.60;90.40
4461;DHT22;2243;48.812;9.232;2023-09-19T16:59:09;23.50;90.50
4461;DHT22;2243;48.812;9.232;2023-09-19T17:01:41;23.50;90.40
4461;DHT22;2243;48.812;9.232;2023-09-19T17:04:13;23.50;90.60
4461;DHT22;2243;48.812;9.232;2023-09-19T17:06:44;23.50;90.60
4461;DHT22;2243;48.812;9.232;2023-09-19T17:09:17;23.40;90.70
4461;DHT22;2243;48.812;9.232;2023-09-19T17:11:49;23.40;90.80
4461;DHT22;2243;48.812;9.232;2023-09-19T17:14:21;23.30;90.90
4461;DHT22;2243;48.812;9.232;2023-09-19T17:16:52;23.20;91.00
4461;DHT22;2243;48.812;9.232;2023-09-19T17:19:24;23.20;91.20